createdAt,value
2018-07-28T00:02:44.411Z,99261.97
2018-07-28T00:05:47.648Z,99261.34
2018-07-28T00:08:51.008Z,99257.72
2018-07-28T00:11:54.271Z,99258.04
2018-07-28T00:14:57.587Z,99258.73
2018-07-28T00:18:01.008Z,99253.95
2018-07-28T00:21:04.461Z,99245.48
2018-07-28T00:24:07.801Z,99245.98
2018-07-28T00:27:11.142Z,99243.81
2018-07-28T00:30:14.627Z,99244.68
2018-07-28T00:33:17.880Z,99245.36
2018-07-28T00:36:21.149Z,99237.52
2018-07-28T00:39:30.337Z,99235.62
2018-07-28T00:42:33.590Z,99229.33
2018-07-28T00:45:36.989Z,99228.31
2018-07-28T00:48:40.252Z,99221.70
2018-07-28T00:51:43.558Z,99218.81
2018-07-28T00:54:47.525Z,99218.80
2018-07-28T00:57:50.891Z,99214.36
2018-07-28T01:00:54.388Z,99217.08
2018-07-28T01:03:57.716Z,99211.66
2018-07-28T01:07:01.000Z,99205.85
2018-07-28T01:10:05.156Z,99197.69
2018-07-28T01:13:08.910Z,99196.64
2018-07-28T01:16:12.382Z,99193.43
2018-07-28T01:19:15.924Z,99190.12
2018-07-28T01:22:19.280Z,99191.21
2018-07-28T01:25:22.647Z,99186.56
2018-07-28T01:28:25.906Z,99185.27
2018-07-28T01:31:29.216Z,99176.41
2018-07-28T01:34:32.670Z,99179.78
2018-07-28T01:37:36.107Z,99167.56
2018-07-28T01:40:39.446Z,99168.58
2018-07-28T01:43:42.801Z,99166.20
2018-07-28T01:46:46.093Z,99160.89
2018-07-28T01:49:49.515Z,99164.13
2018-07-28T01:52:52.807Z,99153.56
2018-07-28T01:55:56.099Z,99157.52
2018-07-28T01:58:59.528Z,99153.25
2018-07-28T02:02:02.873Z,99146.11
2018-07-28T02:05:07.989Z,99138.60
2018-07-28T02:08:11.285Z,99134.05
2018-07-28T02:11:14.593Z,99132.69
2018-07-28T02:14:17.825Z,99126.22
2018-07-28T02:17:21.014Z,99122.97
2018-07-28T02:20:24.285Z,99123.31
2018-07-28T02:23:27.508Z,99113.30
2018-07-28T02:26:30.678Z,99105.62
2018-07-28T02:29:33.960Z,99104.61
2018-07-28T02:32:37.121Z,99106.30
2018-07-28T02:35:40.287Z,99107.14
2018-07-28T02:38:43.520Z,99101.02
2018-07-28T02:41:46.752Z,99096.08
2018-07-28T02:44:50.053Z,99101.17
2018-07-28T02:47:53.304Z,99099.28
2018-07-28T02:50:56.556Z,99095.02
2018-07-28T02:53:59.812Z,99092.33
2018-07-28T02:57:03.054Z,99087.52
2018-07-28T03:00:07.826Z,99095.84
2018-07-28T03:03:11.082Z,99094.25
2018-07-28T03:06:14.340Z,99110.86
2018-07-28T03:09:17.616Z,99104.27
2018-07-28T03:12:20.832Z,99096.67
2018-07-28T03:15:30.603Z,99095.91
2018-07-28T03:18:33.807Z,99086.66
2018-07-28T03:21:37.141Z,99087.72
2018-07-28T03:24:40.326Z,99081.93
2018-07-28T03:27:43.518Z,99078.56
2018-07-28T03:30:46.696Z,99081.93
2018-07-28T03:33:50.004Z,99087.36
2018-07-28T03:36:53.201Z,99085.08
2018-07-28T03:39:56.433Z,99074.27
2018-07-28T03:42:59.676Z,99082.07
2018-07-28T03:46:03.542Z,99137.37
2018-07-28T03:49:06.842Z,99183.35
2018-07-28T03:52:10.132Z,99110.09
2018-07-28T03:55:13.499Z,99097.20
2018-07-28T03:58:16.828Z,99123.46
2018-07-28T04:01:20.221Z,99126.83
2018-07-28T04:04:23.576Z,99134.61
2018-07-28T04:07:26.921Z,99150.62
2018-07-28T04:10:30.352Z,99156.01
2018-07-28T04:13:33.774Z,99117.68
2018-07-28T04:16:37.061Z,99160.82
2018-07-28T04:19:40.421Z,99156.73
2018-07-28T04:22:43.803Z,99126.37
2018-07-28T04:25:47.237Z,99170.06
2018-07-28T04:28:50.667Z,99146.36
2018-07-28T04:31:54.018Z,99138.36
2018-07-28T04:34:57.332Z,99139.00
2018-07-28T04:38:00.665Z,99154.30
2018-07-28T04:41:04.063Z,99141.41
2018-07-28T04:44:07.475Z,99150.53
2018-07-28T04:47:10.792Z,99130.38
2018-07-28T04:50:14.141Z,99136.31
2018-07-28T04:53:17.516Z,99143.92
2018-07-28T04:56:20.817Z,99127.19
2018-07-28T04:59:24.159Z,99117.63
2018-07-28T05:02:28.116Z,99123.41
2018-07-28T05:05:31.757Z,99116.27
2018-07-28T05:08:35.269Z,99107.95
2018-07-28T05:11:38.650Z,99111.22
2018-07-28T05:14:41.911Z,99110.20
2018-07-28T05:17:45.239Z,99104.92
2018-07-28T05:20:49.814Z,99110.47
2018-07-28T05:23:54.181Z,99111.67
2018-07-28T05:27:00.405Z,99101.66
2018-07-28T05:30:04.723Z,99105.78
2018-07-28T05:33:08.042Z,99103.56
2018-07-28T05:36:11.695Z,99096.92
2018-07-28T05:39:15.047Z,99102.80
2018-07-28T05:42:18.398Z,99096.45
2018-07-28T05:45:21.694Z,99090.17
2018-07-28T05:48:25.068Z,99089.06
2018-07-28T05:51:28.450Z,99091.44
2018-07-28T05:54:31.790Z,99071.91
2018-07-28T05:57:35.138Z,99065.91
2018-07-28T06:00:38.473Z,99085.29
2018-07-28T06:03:41.790Z,99084.93
2018-07-28T06:06:45.269Z,99094.91
2018-07-28T06:09:48.674Z,99090.08
2018-07-28T06:12:52.029Z,99093.33
2018-07-28T06:15:55.386Z,99091.30
2018-07-28T06:18:58.693Z,99089.47
2018-07-28T06:22:01.950Z,99098.98
2018-07-28T06:25:06.186Z,99097.77
2018-07-28T06:28:09.511Z,99100.66
2018-07-28T06:31:13.061Z,99102.86
2018-07-28T06:34:16.318Z,99099.77
2018-07-28T06:37:19.604Z,99101.52
2018-07-28T06:40:22.826Z,99149.70
2018-07-28T06:43:26.117Z,99178.84
2018-07-28T06:46:29.406Z,99161.00
2018-07-28T06:49:32.652Z,99182.59
2018-07-28T06:52:35.854Z,99176.59
2018-07-28T06:55:38.975Z,99193.09
2018-07-28T06:58:42.176Z,99188.23
2018-07-28T07:01:45.147Z,99203.16
2018-07-28T07:04:48.151Z,99219.47
2018-07-28T07:07:51.314Z,99228.45
2018-07-28T07:10:54.406Z,99235.28
2018-07-28T07:13:57.393Z,99228.78
2018-07-28T07:17:00.615Z,99229.69
2018-07-28T07:20:04.434Z,99221.12
2018-07-28T07:23:07.439Z,99210.34
2018-07-28T07:26:10.655Z,99224.61
2018-07-28T07:29:13.709Z,99220.73
2018-07-28T07:32:16.800Z,99219.55
2018-07-28T07:35:19.834Z,99212.05
2018-07-28T07:38:22.767Z,99203.34
2018-07-28T07:41:25.821Z,99211.56
2018-07-28T07:44:28.871Z,99215.92
2018-07-28T07:47:31.947Z,99215.37
2018-07-28T07:50:35.469Z,99223.99
2018-07-28T07:53:38.465Z,99227.28
2018-07-28T07:56:42.991Z,99228.19
2018-07-28T07:59:45.947Z,99229.73
2018-07-28T08:02:48.937Z,99244.00
2018-07-28T08:05:52.167Z,99253.24
2018-07-28T08:08:55.221Z,99239.61
2018-07-28T08:11:58.317Z,99239.87
2018-07-28T08:15:01.659Z,99242.47
2018-07-28T08:18:04.824Z,99249.04
2018-07-28T08:21:07.977Z,99258.83
2018-07-28T08:24:11.269Z,99266.19
2018-07-28T08:27:14.346Z,99256.53
2018-07-28T08:30:17.481Z,99267.79
2018-07-28T08:33:20.587Z,99264.38
2018-07-28T08:36:23.638Z,99262.47
2018-07-28T08:39:26.712Z,99248.69
2018-07-28T08:42:29.967Z,99250.41
2018-07-28T08:45:33.338Z,99244.86
2018-07-28T08:48:36.463Z,99243.55
2018-07-28T08:51:39.574Z,99241.43
2018-07-28T08:54:42.719Z,99241.49
2018-07-28T08:57:45.826Z,99247.40
2018-07-28T09:00:48.917Z,99259.09
2018-07-28T09:03:52.222Z,99268.30
2018-07-28T09:06:55.266Z,99290.08
2018-07-28T09:09:58.839Z,99300.72
2018-07-28T09:13:01.933Z,99309.66
2018-07-28T09:16:04.925Z,99306.42
2018-07-28T09:19:08.057Z,99304.14
2018-07-28T09:22:11.407Z,99309.66
2018-07-28T09:25:14.662Z,99316.23
2018-07-28T09:28:18.084Z,99313.73
2018-07-28T09:31:21.251Z,99314.28
2018-07-28T09:34:24.339Z,99322.11
2018-07-28T09:37:27.457Z,99323.78
2018-07-28T09:40:30.528Z,99318.26
2018-07-28T09:43:34.210Z,99330.16
2018-07-28T09:46:37.444Z,99346.75
2018-07-28T09:49:40.542Z,99344.83
2018-07-28T09:52:43.794Z,99335.91
2018-07-28T09:55:47.239Z,99341.48
2018-07-28T09:58:50.405Z,99350.24
2018-07-28T10:01:53.563Z,99353.94
2018-07-28T10:04:56.740Z,99342.43
2018-07-28T10:08:00.472Z,99341.89
2018-07-28T10:11:03.636Z,99346.55
2018-07-28T10:14:06.963Z,99346.12
2018-07-28T10:17:10.126Z,99346.88
2018-07-28T10:20:13.226Z,99347.70
2018-07-28T10:23:16.408Z,99335.28
2018-07-28T10:26:19.605Z,99344.00
2018-07-28T10:29:22.836Z,99350.88
2018-07-28T10:32:25.985Z,99348.56
2018-07-28T10:35:29.181Z,99341.52
2018-07-28T10:38:33.316Z,99333.06
2018-07-28T10:41:36.960Z,99328.75
2018-07-28T10:44:40.486Z,99318.66
2018-07-28T10:47:44.048Z,99324.25
2018-07-28T10:50:47.717Z,99337.92
2018-07-28T10:53:50.961Z,99338.84
2018-07-28T10:56:54.446Z,99340.16
2018-07-28T10:59:58.045Z,99346.84
2018-07-28T11:03:01.576Z,99345.14
2018-07-28T11:06:05.609Z,99340.84
2018-07-28T11:09:09.457Z,99334.45
2018-07-28T11:12:12.980Z,99323.64
2018-07-28T11:15:16.212Z,99324.15
2018-07-28T11:18:20.479Z,99314.59
2018-07-28T11:21:23.517Z,99319.03
2018-07-28T11:24:26.512Z,99319.37
2018-07-28T11:27:29.512Z,99312.20
2018-07-28T11:30:32.523Z,99322.56
2018-07-28T11:33:52.694Z,99325.51
2018-07-28T11:37:12.758Z,99326.20
2018-07-28T11:40:32.683Z,99327.38
2018-07-28T11:43:52.663Z,99267.47
2018-07-28T11:46:55.577Z,99321.48
2018-07-28T11:49:58.556Z,99321.45
2018-07-28T11:53:01.487Z,99317.98
2018-07-28T11:56:04.972Z,99305.84
2018-07-28T11:59:07.907Z,99302.30
2018-07-28T12:02:10.911Z,99302.03
2018-07-28T12:05:13.871Z,99308.03
2018-07-28T12:08:16.801Z,99310.39
2018-07-28T12:11:19.816Z,99302.41
2018-07-28T12:14:22.815Z,99303.47
2018-07-28T12:17:25.779Z,99307.33
2018-07-28T12:20:28.728Z,99313.63
2018-07-28T12:23:31.777Z,99310.06
2018-07-28T12:26:34.976Z,99312.41
2018-07-28T12:29:37.921Z,99318.84
2018-07-28T12:32:41.166Z,99325.66
2018-07-28T12:35:44.221Z,99318.50
2018-07-28T12:38:47.218Z,99330.48
2018-07-28T12:41:50.283Z,99320.91
2018-07-28T12:44:53.279Z,99319.56
2018-07-28T12:47:56.305Z,99330.90
2018-07-28T12:50:59.297Z,99316.07
2018-07-28T12:54:02.397Z,99323.34
2018-07-28T12:57:05.418Z,99322.02
2018-07-28T13:00:08.461Z,99328.02
2018-07-28T13:03:11.499Z,99316.52
2018-07-28T13:06:14.463Z,99321.59
2018-07-28T13:09:17.480Z,99326.66
2018-07-28T13:12:20.520Z,99313.72
2018-07-28T13:15:23.501Z,99322.59
2018-07-28T13:18:26.490Z,99321.23
2018-07-28T13:21:29.526Z,99322.69
2018-07-28T13:24:32.514Z,99319.74
2018-07-28T13:27:35.529Z,99314.37
2018-07-28T13:30:38.495Z,99323.80
2018-07-28T13:33:41.497Z,99329.18
2018-07-28T13:36:44.498Z,99321.09
2018-07-28T13:39:47.445Z,99322.45
2018-07-28T13:42:50.468Z,99317.08
2018-07-28T13:46:00.173Z,99316.28
2018-07-28T13:49:03.401Z,99322.05
2018-07-28T13:52:06.517Z,99313.11
2018-07-28T13:55:09.500Z,99302.42
2018-07-28T13:58:12.568Z,99289.33
2018-07-28T14:01:15.570Z,99289.38
2018-07-28T14:04:18.585Z,99292.91
2018-07-28T14:07:21.602Z,99299.95
2018-07-28T14:10:24.616Z,99293.80
2018-07-28T14:13:27.635Z,99294.39
2018-07-28T14:16:30.650Z,99286.60
2018-07-28T14:19:33.692Z,99284.92
2018-07-28T14:22:36.900Z,99281.85
2018-07-28T14:25:39.887Z,99291.83
2018-07-28T14:28:42.873Z,99304.39
2018-07-28T14:31:45.827Z,99306.05
2018-07-28T14:34:48.794Z,99297.30
2018-07-28T14:37:51.878Z,99304.87
2018-07-28T14:40:54.807Z,99310.29
2018-07-28T14:43:57.822Z,99327.09
2018-07-28T14:47:00.789Z,99321.78
2018-07-28T14:50:03.871Z,99322.20
2018-07-28T14:53:07.490Z,99324.53
2018-07-28T14:56:10.473Z,99314.78
2018-07-28T14:59:13.760Z,99314.22
2018-07-28T15:02:16.700Z,99325.05
2018-07-28T15:05:19.622Z,99311.56
2018-07-28T15:08:22.572Z,99310.41
2018-07-28T15:11:25.570Z,99310.44
2018-07-28T15:14:28.521Z,99319.91
2018-07-28T15:17:31.468Z,99322.25
2018-07-28T15:20:34.452Z,99336.27
2018-07-28T15:23:37.616Z,99340.42
2018-07-28T15:26:40.559Z,99327.80
2018-07-28T15:29:43.513Z,99332.41
2018-07-28T15:32:46.666Z,99339.23
2018-07-28T15:35:49.873Z,99340.02
2018-07-28T15:38:52.819Z,99350.28
2018-07-28T15:41:56.004Z,99360.67
2018-07-28T15:44:59.023Z,99358.99
2018-07-28T15:48:02.159Z,99362.34
2018-07-28T15:51:05.181Z,99365.88
2018-07-28T15:54:08.187Z,99352.30
2018-07-28T15:57:11.316Z,99362.39
2018-07-28T16:00:16.816Z,99368.50
2018-07-28T16:03:19.994Z,99363.04
2018-07-28T16:06:23.018Z,99358.95
2018-07-28T16:09:26.067Z,99368.13
2018-07-28T16:12:29.236Z,99378.81
2018-07-28T16:15:32.452Z,99383.55
2018-07-28T16:18:35.511Z,99396.41
2018-07-28T16:21:38.476Z,99401.27
2018-07-28T16:24:41.502Z,99393.25
2018-07-28T16:27:44.549Z,99386.80
2018-07-28T16:30:47.626Z,99384.36
2018-07-28T16:33:50.918Z,99377.51
2018-07-28T16:36:54.091Z,99386.55
2018-07-28T16:39:57.212Z,99403.54
2018-07-28T16:43:00.223Z,99416.49
2018-07-28T16:46:03.495Z,99423.84
2018-07-28T16:49:06.734Z,99438.94
2018-07-28T16:52:09.792Z,99460.61
2018-07-28T16:55:12.815Z,99467.75
2018-07-28T16:58:15.883Z,99468.27
2018-07-28T17:01:18.869Z,99473.21
2018-07-28T17:04:21.941Z,99472.88
2018-07-28T17:07:24.948Z,99473.70
2018-07-28T17:10:27.968Z,99488.23
2018-07-28T17:13:31.033Z,99493.02
2018-07-28T17:16:34.335Z,99495.72
2018-07-28T17:19:37.414Z,99508.17
2018-07-28T17:22:40.523Z,99534.05
2018-07-28T17:25:43.589Z,99541.06
2018-07-28T17:28:46.795Z,99558.08
2018-07-28T17:31:50.693Z,99569.58
2018-07-28T17:34:53.890Z,99567.86
2018-07-28T17:37:56.933Z,99570.27
2018-07-28T17:41:00.069Z,99572.59
2018-07-28T17:44:03.062Z,99563.14
2018-07-28T17:47:06.236Z,99573.38
2018-07-28T17:50:09.347Z,99589.25
2018-07-28T17:53:12.485Z,99589.41
2018-07-28T17:56:15.444Z,99593.66
2018-07-28T17:59:18.355Z,99601.31
2018-07-28T18:02:21.349Z,99613.98
2018-07-28T18:05:24.353Z,99626.97
2018-07-28T18:08:27.308Z,99638.41
2018-07-28T18:11:30.212Z,99636.23
2018-07-28T18:14:33.264Z,99634.84
2018-07-28T18:17:36.227Z,99632.06
2018-07-28T18:20:39.196Z,99643.52
2018-07-28T18:23:42.146Z,99646.97
2018-07-28T18:26:45.180Z,99646.53
2018-07-28T18:29:48.124Z,99637.27
2018-07-28T18:32:51.096Z,99643.75
2018-07-28T18:35:54.076Z,99649.40
2018-07-28T18:38:57.031Z,99650.61
2018-07-28T18:41:59.974Z,99659.07
2018-07-28T18:45:02.946Z,99665.19
2018-07-28T18:48:05.960Z,99676.08
2018-07-28T18:51:08.985Z,99673.68
2018-07-28T18:54:11.976Z,99674.66
2018-07-28T18:57:14.946Z,99675.16
2018-07-28T19:00:17.928Z,99667.35
2018-07-28T19:03:20.864Z,99678.14
2018-07-28T19:06:23.831Z,99678.09
2018-07-28T19:09:32.512Z,99675.91
2018-07-28T19:12:41.034Z,99684.54
2018-07-28T19:15:43.964Z,99688.80
2018-07-28T19:18:52.518Z,99696.17
2018-07-28T19:21:55.495Z,99708.85
2018-07-28T19:24:58.461Z,99704.84
2018-07-28T19:28:06.910Z,99708.56
2018-07-28T19:31:09.839Z,99716.38
2018-07-28T19:34:12.796Z,99722.45
2018-07-28T19:37:19.984Z,99723.14
2018-07-28T19:40:22.981Z,99722.14
2018-07-28T19:43:25.906Z,99731.09
2018-07-28T19:46:28.910Z,99727.19
2018-07-28T19:49:31.848Z,99735.35
2018-07-28T19:52:34.781Z,99741.30
2018-07-28T19:55:37.744Z,99750.53
2018-07-28T19:58:40.662Z,99749.85
2018-07-28T20:01:43.597Z,99751.39
2018-07-28T20:04:46.561Z,99762.27
2018-07-28T20:07:49.497Z,99758.48
2018-07-28T20:10:52.497Z,99771.72
2018-07-28T20:13:55.431Z,99779.53
2018-07-28T20:16:58.481Z,99782.78
2018-07-28T20:20:01.366Z,99793.45
2018-07-28T20:23:04.323Z,99798.67
2018-07-28T20:26:07.424Z,99803.06
2018-07-28T20:29:10.346Z,99800.34
2018-07-28T20:32:13.400Z,99814.95
2018-07-28T20:35:16.299Z,99816.77
2018-07-28T20:38:19.290Z,99816.81
2018-07-28T20:41:22.364Z,99816.38
2018-07-28T20:44:25.282Z,99819.09
2018-07-28T20:47:28.367Z,99814.74
2018-07-28T20:50:31.298Z,99823.53
2018-07-28T20:53:34.273Z,99824.90
2018-07-28T20:56:37.237Z,99818.69
2018-07-28T20:59:40.215Z,99827.15
2018-07-28T21:02:43.169Z,99826.23
2018-07-28T21:05:47.353Z,99839.47
2018-07-28T21:08:50.315Z,99839.75
2018-07-28T21:11:53.299Z,99837.83
2018-07-28T21:14:56.287Z,99840.69
2018-07-28T21:17:59.231Z,99837.41
2018-07-28T21:21:02.190Z,99844.70
2018-07-28T21:24:05.409Z,99843.23
2018-07-28T21:27:08.417Z,99847.95
2018-07-28T21:30:11.399Z,99847.31
2018-07-28T21:33:14.300Z,99851.60
2018-07-28T21:36:17.224Z,99851.60
2018-07-28T21:39:20.199Z,99863.91
2018-07-28T21:42:26.410Z,99862.48
2018-07-28T21:45:29.398Z,99863.98
2018-07-28T21:48:32.378Z,99866.97
2018-07-28T21:51:35.788Z,99871.02
2018-07-28T21:54:50.255Z,99868.77
2018-07-28T21:57:53.831Z,99882.48
2018-07-28T22:01:02.976Z,99878.41
2018-07-28T22:04:07.370Z,99875.39
2018-07-28T22:07:13.028Z,99875.55
2018-07-28T22:10:18.246Z,99878.16
2018-07-28T22:13:22.408Z,99879.87
2018-07-28T22:16:25.979Z,99885.80
2018-07-28T22:19:30.656Z,99888.25
2018-07-28T22:22:34.524Z,99888.35
2018-07-28T22:25:38.518Z,99898.31
2018-07-28T22:28:42.149Z,99892.55
2018-07-28T22:31:45.237Z,99902.02
2018-07-28T22:34:48.204Z,99904.11
2018-07-28T22:37:52.187Z,99904.36
2018-07-28T22:40:55.204Z,99914.30
2018-07-28T22:43:58.211Z,99910.37
2018-07-28T22:47:01.213Z,99918.25
2018-07-28T22:50:05.477Z,99918.59
2018-07-28T22:53:08.892Z,99918.10
2018-07-28T22:56:11.912Z,99923.13
2018-07-28T22:59:14.896Z,99923.51
2018-07-28T23:02:17.832Z,99932.97
2018-07-28T23:05:20.790Z,99930.64
2018-07-28T23:08:23.804Z,99933.13
2018-07-28T23:11:26.784Z,99931.25
2018-07-28T23:14:29.766Z,99932.11
2018-07-28T23:17:32.806Z,99935.30
2018-07-28T23:20:35.884Z,99939.02
2018-07-28T23:23:38.863Z,99936.17
2018-07-28T23:26:41.893Z,99937.17
2018-07-28T23:29:44.856Z,99928.69
2018-07-28T23:32:47.811Z,99937.89
2018-07-28T23:35:51.151Z,99942.58
2018-07-28T23:38:54.162Z,99940.22
2018-07-28T23:41:57.207Z,99942.92
2018-07-28T23:45:00.433Z,99944.91
2018-07-28T23:48:03.535Z,99955.10
2018-07-28T23:51:06.687Z,99952.39
2018-07-28T23:54:09.838Z,99946.38
2018-07-28T23:57:12.990Z,99955.95
